Detall de PIREP

Printer-friendly versionPDF version

[2013/05/25 05:23:00]
Flight IATA:CT2111
Pilot Number:041
Company ICAO:CAT
Aircraft Type:A343/E
PAX:211
Departing Airport: LEST
Destination Airport: LEVC
Alternate Airport:LEPA
Online: VATSIM
Route:FORNO UN733 ZMR UL155 KALMA UH100 CJN UN733 CLS
Flight Level:FL340
No Slew and time accel
No pause
Crash detect
Detect pilot in Cockpit between each 30 and 45 minutes
05:23 Zero fuel Weight: 391580 Lbs, Fuel Weight: 38260 Lbs
05:23 VATSIM:LEST 250500Z 06005KT 020V100 9999 SCT015 BKN026 08/06 Q1022 NOSIG
05:23 VATSIM:LEVC 250500Z VRB01KT CAVOK ///// Q1016 NOSIG
05:23 VOICE CATALONIAN
05:35 Parking Brakes off
05:43 Take-off
05:43 Take off Weight: 428462 Lbs
05:43 Wind: 066º @ 004 Knots Heading: 347º
05:43 POS N42º 54´ 18´´ W008º 25´ 04´´
05:43 Gear Up: 202 Knots
05:43 Flaps:3 at 202 Knots
05:43 Flaps:1 at 214 Knots
05:43 Flaps:3 at 215 Knots
05:43 Flaps:2 at 218 Knots
05:43 Flaps:1 at 218 Knots
05:44 Flaps:0 at 231 Knots
05:58 Wind:309º@028 Knots Heading: 124º Ground Speed: 482 Knots Altitude 32657 ft
05:59 TOC
05:59 Fuel Weight: 30008 Lb
06:13 Wind:310º@024 Knots Heading: 138º Ground Speed: 498 Knots Altitude 34137 ft
06:28 Wind:307º@023 Knots Heading: 105º Ground Speed: 496 Knots Altitude 34133 ft
06:30 TOD
06:30 Fuel Weight: 22331 Lb
06:42 Flaps:1 at 228 Knots
06:42 Flaps:2 at 227 Knots
06:42 Flaps:1 at 226 Knots
06:42 Flaps:3 at 224 Knots
06:43 Wind:023º@001 Knots Heading: 112º Ground Speed: 201 Knots Altitude 2411 ft
06:43 Flaps:4 at 197 Knots
06:43 Gear Down: 179 Knots
06:43 Flaps:5 at 147 Knots
06:45 TouchDown:Rate -242 ft/min Speed: 131 Knots
06:46 VATSIM:LEVC 250630Z 00000KT CAVOK 14/08 Q1017 NOSIG
06:46 Land
06:46 Wind:073º@001 Knots
06:46 Heading: 113º
06:46 Flight Duration: 01:03
06:46 Landing Weight: 412465 Lbs
06:46 POS N39º 29´ 31´´ W000º 29´ 20´´
06:49 Parking brakes on
06:49 Block to Block Duration: 01:14
06:49 Final Fuel: 20315 Lbls
06:49 Spent Fuel: 17945 Lbls
06:49 Flight Length: 441 NM
06:49 TOD Land Length: 73 NM

Exportar CSV

Powered by Drupal - Modified by Danger4k